Terminal Aerodrome Forecast
Issued by NWS Cleveland, OH

Home | Current Version | Previous Version | Text Only | Print | Product List | Glossary On
Versions: 1 2 3 4 5 6 7 8 9 10 11 12 13 14 15 16 17 18 19 20 21 22 23
000
FTUS41 KCLE 220812 AAA
TAFYNG
TAF AMD
KYNG 220812Z 2208/2306 16006KT P6SM -RA OVC050
     FM220930 16005KT 4SM BR OVC025
      TEMPO 2210/2213 2SM BR BKN010
     FM221500 12005KT P6SM BKN035
     FM221800 08005KT P6SM BKN050
     FM230000 06010KT P6SM -SHRA OVC025=

USA.gov is the U.S. government's official web portal to all federal, state and local government web resources and services.